Foley, Missouri
Current Conditions -  °F | °C
As of 11:54 AM on Friday 19 Dec 2014 (Local Time) from KSET Reporting Station
Overcast Overcast  
Wind Chill: 35°   Ceiling: 3800
Heat Index: 35°   Visibility: 8mi
Dew Point: 28°   Wind: 3mph
Humidity: 76%   Direction: 90°E
Pressure: 30.29"   Gusts: NA
Location:  39.05°N, 90.74°W
Report Text: KSET 191754Z AUTO 09003KT 8SM FEW016 BKN038 OVC060 02/M02 A3029 RMK AO2 SLP260 T00171022 10022 21006 58012
Loading
Personal Weather Stations






























Interactive Weather Map New forecast layout! Learn more

10-Day Weather Forecast

Advertisements
Track Severe Weather on mobile